sensor_id;sensor_type;location;lat;lon;timestamp;P1;durP1;ratioP1;P2;durP2;ratioP2
1785;SDS011;890;48.158;11.540;2023-08-06T00:02:24;7.00;;;5.30;;
1785;SDS011;890;48.158;11.540;2023-08-06T00:04:49;6.30;;;5.70;;
1785;SDS011;890;48.158;11.540;2023-08-06T00:07:15;7.63;;;5.70;;
1785;SDS011;890;48.158;11.540;2023-08-06T00:09:40;6.53;;;5.80;;
1785;SDS011;890;48.158;11.540;2023-08-06T00:12:06;5.73;;;5.03;;
1785;SDS011;890;48.158;11.540;2023-08-06T00:14:32;6.10;;;5.50;;
1785;SDS011;890;48.158;11.540;2023-08-06T00:16:58;5.90;;;4.93;;
1785;SDS011;890;48.158;11.540;2023-08-06T00:19:23;6.07;;;5.40;;
1785;SDS011;890;48.158;11.540;2023-08-06T00:21:49;6.13;;;5.53;;
1785;SDS011;890;48.158;11.540;2023-08-06T00:24:14;7.60;;;5.37;;
1785;SDS011;890;48.158;11.540;2023-08-06T00:26:40;6.00;;;5.40;;
1785;SDS011;890;48.158;11.540;2023-08-06T00:29:06;5.63;;;5.13;;
1785;SDS011;890;48.158;11.540;2023-08-06T00:31:31;5.80;;;5.23;;
1785;SDS011;890;48.158;11.540;2023-08-06T00:33:57;5.77;;;5.17;;
1785;SDS011;890;48.158;11.540;2023-08-06T00:36:22;6.37;;;5.77;;
1785;SDS011;890;48.158;11.540;2023-08-06T00:38:48;5.53;;;5.03;;
1785;SDS011;890;48.158;11.540;2023-08-06T00:41:13;5.17;;;4.10;;
1785;SDS011;890;48.158;11.540;2023-08-06T00:43:39;5.73;;;4.60;;
1785;SDS011;890;48.158;11.540;2023-08-06T00:46:05;4.43;;;4.03;;
1785;SDS011;890;48.158;11.540;2023-08-06T00:48:31;4.90;;;4.50;;
1785;SDS011;890;48.158;11.540;2023-08-06T00:50:57;5.83;;;4.83;;
1785;SDS011;890;48.158;11.540;2023-08-06T00:53:23;5.97;;;5.47;;
1785;SDS011;890;48.158;11.540;2023-08-06T00:55:49;6.13;;;5.53;;
1785;SDS011;890;48.158;11.540;2023-08-06T00:58:16;5.43;;;4.90;;
1785;SDS011;890;48.158;11.540;2023-08-06T01:00:42;7.10;;;5.37;;
1785;SDS011;890;48.158;11.540;2023-08-06T01:03:07;7.07;;;4.93;;
1785;SDS011;890;48.158;11.540;2023-08-06T01:05:33;8.53;;;5.20;;
1785;SDS011;890;48.158;11.540;2023-08-06T01:10:51;4.43;;;4.07;;
1785;SDS011;890;48.158;11.540;2023-08-06T01:13:41;4.87;;;4.37;;
1785;SDS011;890;48.158;11.540;2023-08-06T01:16:11;5.20;;;4.60;;
1785;SDS011;890;48.158;11.540;2023-08-06T01:18:43;5.00;;;4.50;;
1785;SDS011;890;48.158;11.540;2023-08-06T01:21:14;5.50;;;5.00;;
1785;SDS011;890;48.158;11.540;2023-08-06T01:23:40;5.70;;;5.13;;
1785;SDS011;890;48.158;11.540;2023-08-06T01:29:21;8.07;;;5.43;;
1785;SDS011;890;48.158;11.540;2023-08-06T01:31:50;6.47;;;5.20;;
1785;SDS011;890;48.158;11.540;2023-08-06T01:34:18;6.20;;;5.40;;
1785;SDS011;890;48.158;11.540;2023-08-06T01:36:46;5.97;;;5.20;;
1785;SDS011;890;48.158;11.540;2023-08-06T01:39:12;6.70;;;5.43;;
1785;SDS011;890;48.158;11.540;2023-08-06T01:41:38;7.30;;;5.90;;
1785;SDS011;890;48.158;11.540;2023-08-06T01:44:04;8.17;;;5.83;;
1785;SDS011;890;48.158;11.540;2023-08-06T01:46:29;6.30;;;5.37;;
1785;SDS011;890;48.158;11.540;2023-08-06T01:48:55;6.97;;;6.17;;
1785;SDS011;890;48.158;11.540;2023-08-06T01:51:20;6.70;;;5.40;;
1785;SDS011;890;48.158;11.540;2023-08-06T01:53:46;7.00;;;5.57;;
1785;SDS011;890;48.158;11.540;2023-08-06T01:56:11;7.40;;;6.03;;
1785;SDS011;890;48.158;11.540;2023-08-06T01:58:37;6.33;;;5.73;;
1785;SDS011;890;48.158;11.540;2023-08-06T02:01:03;6.70;;;6.00;;
1785;SDS011;890;48.158;11.540;2023-08-06T02:03:28;5.83;;;5.33;;
1785;SDS011;890;48.158;11.540;2023-08-06T02:05:54;6.47;;;5.60;;
1785;SDS011;890;48.158;11.540;2023-08-06T02:08:20;6.10;;;5.10;;
1785;SDS011;890;48.158;11.540;2023-08-06T02:10:45;6.03;;;5.43;;
1785;SDS011;890;48.158;11.540;2023-08-06T02:13:11;5.83;;;5.23;;
1785;SDS011;890;48.158;11.540;2023-08-06T02:15:41;5.83;;;5.23;;
1785;SDS011;890;48.158;11.540;2023-08-06T02:18:08;5.57;;;4.90;;
1785;SDS011;890;48.158;11.540;2023-08-06T02:20:33;5.53;;;4.20;;
1785;SDS011;890;48.158;11.540;2023-08-06T02:22:59;4.77;;;4.27;;
1785;SDS011;890;48.158;11.540;2023-08-06T02:25:25;5.83;;;4.80;;
1785;SDS011;890;48.158;11.540;2023-08-06T02:27:50;5.00;;;4.60;;
1785;SDS011;890;48.158;11.540;2023-08-06T02:30:16;5.20;;;4.30;;
1785;SDS011;890;48.158;11.540;2023-08-06T02:32:41;4.67;;;3.87;;
1785;SDS011;890;48.158;11.540;2023-08-06T02:35:07;5.17;;;4.47;;
1785;SDS011;890;48.158;11.540;2023-08-06T02:37:33;5.77;;;4.70;;
1785;SDS011;890;48.158;11.540;2023-08-06T02:39:59;748.43;;;693.23;;
1785;SDS011;890;48.158;11.540;2023-08-06T02:42:25;1110.10;;;999.90;;
1785;SDS011;890;48.158;11.540;2023-08-06T02:44:51;1167.67;;;999.90;;
1785;SDS011;890;48.158;11.540;2023-08-06T02:47:20;1115.43;;;995.07;;
1785;SDS011;890;48.158;11.540;2023-08-06T02:49:45;7.07;;;4.47;;
1785;SDS011;890;48.158;11.540;2023-08-06T02:52:11;29.57;;;26.00;;
1785;SDS011;890;48.158;11.540;2023-08-06T02:54:37;1159.93;;;999.90;;
1785;SDS011;890;48.158;11.540;2023-08-06T02:57:03;1166.13;;;999.90;;
1785;SDS011;890;48.158;11.540;2023-08-06T02:59:29;99.23;;;92.53;;
1785;SDS011;890;48.158;11.540;2023-08-06T03:01:55;471.03;;;442.47;;
1785;SDS011;890;48.158;11.540;2023-08-06T03:04:21;526.77;;;491.83;;
1785;SDS011;890;48.158;11.540;2023-08-06T03:06:46;924.57;;;863.60;;
1785;SDS011;890;48.158;11.540;2023-08-06T03:09:13;889.33;;;827.77;;
1785;SDS011;890;48.158;11.540;2023-08-06T03:11:39;382.23;;;355.63;;
1785;SDS011;890;48.158;11.540;2023-08-06T03:14:05;1086.00;;;999.90;;
1785;SDS011;890;48.158;11.540;2023-08-06T03:16:30;4.60;;;3.80;;
1785;SDS011;890;48.158;11.540;2023-08-06T03:18:56;4.80;;;3.97;;
1785;SDS011;890;48.158;11.540;2023-08-06T03:21:21;3.93;;;3.53;;
1785;SDS011;890;48.158;11.540;2023-08-06T03:23:47;4.10;;;3.70;;
1785;SDS011;890;48.158;11.540;2023-08-06T03:26:13;4.07;;;3.43;;
1785;SDS011;890;48.158;11.540;2023-08-06T03:28:39;4.20;;;3.80;;
1785;SDS011;890;48.158;11.540;2023-08-06T03:31:05;4.10;;;3.43;;
1785;SDS011;890;48.158;11.540;2023-08-06T03:33:30;4.50;;;4.10;;
1785;SDS011;890;48.158;11.540;2023-08-06T03:35:56;4.20;;;3.80;;
1785;SDS011;890;48.158;11.540;2023-08-06T03:38:22;4.10;;;3.80;;
1785;SDS011;890;48.158;11.540;2023-08-06T03:40:50;3.67;;;3.03;;
1785;SDS011;890;48.158;11.540;2023-08-06T03:43:16;3.50;;;3.20;;
1785;SDS011;890;48.158;11.540;2023-08-06T03:45:41;6.00;;;3.83;;
1785;SDS011;890;48.158;11.540;2023-08-06T03:48:07;3.63;;;3.33;;
1785;SDS011;890;48.158;11.540;2023-08-06T03:50:34;3.70;;;3.30;;
1785;SDS011;890;48.158;11.540;2023-08-06T03:53:00;3.90;;;3.50;;
1785;SDS011;890;48.158;11.540;2023-08-06T03:55:25;3.90;;;3.20;;
1785;SDS011;890;48.158;11.540;2023-08-06T03:57:51;3.10;;;2.80;;
1785;SDS011;890;48.158;11.540;2023-08-06T04:00:17;4.00;;;3.30;;
1785;SDS011;890;48.158;11.540;2023-08-06T04:02:42;3.80;;;3.00;;
1785;SDS011;890;48.158;11.540;2023-08-06T04:05:08;3.27;;;2.97;;
1785;SDS011;890;48.158;11.540;2023-08-06T04:07:34;3.37;;;3.07;;
1785;SDS011;890;48.158;11.540;2023-08-06T04:10:00;3.90;;;3.00;;
1785;SDS011;890;48.158;11.540;2023-08-06T04:12:27;3.70;;;3.40;;
1785;SDS011;890;48.158;11.540;2023-08-06T04:14:54;3.50;;;2.70;;
1785;SDS011;890;48.158;11.540;2023-08-06T04:17:21;3.00;;;2.70;;
1785;SDS011;890;48.158;11.540;2023-08-06T04:19:50;3.83;;;3.27;;
1785;SDS011;890;48.158;11.540;2023-08-06T04:22:17;4.07;;;3.67;;
1785;SDS011;890;48.158;11.540;2023-08-06T04:24:43;6.53;;;2.93;;
1785;SDS011;890;48.158;11.540;2023-08-06T04:27:09;3.23;;;2.93;;
1785;SDS011;890;48.158;11.540;2023-08-06T04:29:36;4.20;;;3.10;;
1785;SDS011;890;48.158;11.540;2023-08-06T04:32:03;2.87;;;2.67;;
1785;SDS011;890;48.158;11.540;2023-08-06T04:34:30;4.40;;;3.10;;
1785;SDS011;890;48.158;11.540;2023-08-06T04:36:58;3.00;;;2.70;;
1785;SDS011;890;48.158;11.540;2023-08-06T04:39:24;4.70;;;3.10;;
1785;SDS011;890;48.158;11.540;2023-08-06T04:41:50;3.30;;;3.00;;
1785;SDS011;890;48.158;11.540;2023-08-06T04:44:15;2.97;;;2.67;;
1785;SDS011;890;48.158;11.540;2023-08-06T04:46:41;3.10;;;2.80;;
1785;SDS011;890;48.158;11.540;2023-08-06T04:49:06;3.20;;;2.87;;
1785;SDS011;890;48.158;11.540;2023-08-06T04:51:32;5.70;;;2.67;;
1785;SDS011;890;48.158;11.540;2023-08-06T04:53:57;3.10;;;2.23;;
1785;SDS011;890;48.158;11.540;2023-08-06T04:56:23;2.97;;;2.70;;
1785;SDS011;890;48.158;11.540;2023-08-06T04:58:49;3.20;;;2.73;;
1785;SDS011;890;48.158;11.540;2023-08-06T05:01:15;3.07;;;2.57;;
1785;SDS011;890;48.158;11.540;2023-08-06T05:03:41;3.27;;;2.80;;
1785;SDS011;890;48.158;11.540;2023-08-06T05:06:06;3.13;;;2.83;;
1785;SDS011;890;48.158;11.540;2023-08-06T05:08:32;4.57;;;2.93;;
1785;SDS011;890;48.158;11.540;2023-08-06T05:10:58;512.87;;;463.17;;
1785;SDS011;890;48.158;11.540;2023-08-06T05:13:24;430.53;;;404.93;;
1785;SDS011;890;48.158;11.540;2023-08-06T05:15:50;4.57;;;2.93;;
1785;SDS011;890;48.158;11.540;2023-08-06T05:18:18;6.10;;;3.53;;
1785;SDS011;890;48.158;11.540;2023-08-06T05:20:44;3.80;;;2.87;;
1785;SDS011;890;48.158;11.540;2023-08-06T05:23:10;6.77;;;3.40;;
1785;SDS011;890;48.158;11.540;2023-08-06T05:25:35;3.90;;;3.00;;
1785;SDS011;890;48.158;11.540;2023-08-06T05:28:01;2.90;;;2.60;;
1785;SDS011;890;48.158;11.540;2023-08-06T05:30:28;4.60;;;3.27;;
1785;SDS011;890;48.158;11.540;2023-08-06T05:32:53;3.33;;;2.67;;
1785;SDS011;890;48.158;11.540;2023-08-06T05:35:20;3.40;;;2.93;;
1785;SDS011;890;48.158;11.540;2023-08-06T05:37:46;3.13;;;2.83;;
1785;SDS011;890;48.158;11.540;2023-08-06T05:40:11;3.00;;;2.53;;
1785;SDS011;890;48.158;11.540;2023-08-06T05:42:37;2.70;;;2.50;;
1785;SDS011;890;48.158;11.540;2023-08-06T05:45:03;2.93;;;2.57;;
1785;SDS011;890;48.158;11.540;2023-08-06T05:47:28;2.70;;;2.40;;
1785;SDS011;890;48.158;11.540;2023-08-06T05:49:54;3.20;;;2.77;;
1785;SDS011;890;48.158;11.540;2023-08-06T05:52:20;3.40;;;2.23;;
1785;SDS011;890;48.158;11.540;2023-08-06T05:54:45;4.10;;;2.60;;
1785;SDS011;890;48.158;11.540;2023-08-06T05:57:11;2.87;;;2.60;;
1785;SDS011;890;48.158;11.540;2023-08-06T05:59:36;2.60;;;2.30;;
1785;SDS011;890;48.158;11.540;2023-08-06T06:02:02;3.70;;;2.00;;
1785;SDS011;890;48.158;11.540;2023-08-06T06:04:28;2.43;;;2.23;;
1785;SDS011;890;48.158;11.540;2023-08-06T06:06:53;3.60;;;2.53;;
1785;SDS011;890;48.158;11.540;2023-08-06T06:09:19;5.70;;;2.80;;
1785;SDS011;890;48.158;11.540;2023-08-06T06:11:45;3.00;;;2.40;;
1785;SDS011;890;48.158;11.540;2023-08-06T06:14:10;4.07;;;2.33;;
1785;SDS011;890;48.158;11.540;2023-08-06T06:16:36;2.80;;;2.50;;
1785;SDS011;890;48.158;11.540;2023-08-06T06:19:01;3.67;;;2.63;;
1785;SDS011;890;48.158;11.540;2023-08-06T06:21:27;3.40;;;2.53;;
1785;SDS011;890;48.158;11.540;2023-08-06T06:23:52;6.03;;;2.70;;
1785;SDS011;890;48.158;11.540;2023-08-06T06:26:18;4.00;;;2.33;;
1785;SDS011;890;48.158;11.540;2023-08-06T06:28:44;7.30;;;3.27;;
1785;SDS011;890;48.158;11.540;2023-08-06T06:31:09;4.70;;;2.10;;
1785;SDS011;890;48.158;11.540;2023-08-06T06:33:35;4.03;;;2.23;;
1785;SDS011;890;48.158;11.540;2023-08-06T06:36:01;4.83;;;2.53;;
1785;SDS011;890;48.158;11.540;2023-08-06T06:38:29;6.67;;;2.87;;
1785;SDS011;890;48.158;11.540;2023-08-06T06:40:55;5.90;;;1.93;;
1785;SDS011;890;48.158;11.540;2023-08-06T06:43:22;2.80;;;2.00;;
1785;SDS011;890;48.158;11.540;2023-08-06T06:45:52;2.47;;;1.70;;
1785;SDS011;890;48.158;11.540;2023-08-06T06:48:18;1.70;;;1.53;;
1785;SDS011;890;48.158;11.540;2023-08-06T06:50:46;2.40;;;1.97;;
1785;SDS011;890;48.158;11.540;2023-08-06T06:53:13;2.73;;;1.70;;
1785;SDS011;890;48.158;11.540;2023-08-06T06:55:39;6.50;;;1.80;;
1785;SDS011;890;48.158;11.540;2023-08-06T06:58:04;2.10;;;1.90;;
1785;SDS011;890;48.158;11.540;2023-08-06T07:00:30;2.37;;;1.70;;
1785;SDS011;890;48.158;11.540;2023-08-06T07:02:55;3.23;;;1.90;;
1785;SDS011;890;48.158;11.540;2023-08-06T07:05:21;1.40;;;1.30;;
1785;SDS011;890;48.158;11.540;2023-08-06T07:07:46;1.70;;;1.60;;
1785;SDS011;890;48.158;11.540;2023-08-06T07:10:12;2.20;;;1.80;;
1785;SDS011;890;48.158;11.540;2023-08-06T07:12:38;1.50;;;1.00;;
1785;SDS011;890;48.158;11.540;2023-08-06T07:15:05;2.93;;;1.70;;
1785;SDS011;890;48.158;11.540;2023-08-06T07:17:31;1.60;;;0.97;;
1785;SDS011;890;48.158;11.540;2023-08-06T07:19:57;4.67;;;1.10;;
1785;SDS011;890;48.158;11.540;2023-08-06T07:22:22;2.60;;;1.63;;
1785;SDS011;890;48.158;11.540;2023-08-06T07:24:48;1.27;;;1.17;;
1785;SDS011;890;48.158;11.540;2023-08-06T07:27:14;1.70;;;1.10;;
1785;SDS011;890;48.158;11.540;2023-08-06T07:29:39;3.67;;;1.50;;
1785;SDS011;890;48.158;11.540;2023-08-06T07:32:06;1.80;;;1.10;;
1785;SDS011;890;48.158;11.540;2023-08-06T07:34:32;1.53;;;1.33;;
1785;SDS011;890;48.158;11.540;2023-08-06T07:36:58;1.93;;;1.27;;
1785;SDS011;890;48.158;11.540;2023-08-06T07:39:23;2.53;;;0.97;;
1785;SDS011;890;48.158;11.540;2023-08-06T07:41:49;2.00;;;1.07;;
1785;SDS011;890;48.158;11.540;2023-08-06T07:44:15;1.73;;;1.30;;
1785;SDS011;890;48.158;11.540;2023-08-06T07:46:41;1.97;;;1.53;;
1785;SDS011;890;48.158;11.540;2023-08-06T07:49:06;3.47;;;1.67;;
1785;SDS011;890;48.158;11.540;2023-08-06T07:51:32;1.60;;;1.40;;
1785;SDS011;890;48.158;11.540;2023-08-06T07:53:58;2.13;;;1.47;;
1785;SDS011;890;48.158;11.540;2023-08-06T07:56:23;3.17;;;1.80;;
1785;SDS011;890;48.158;11.540;2023-08-06T07:58:49;3.10;;;1.80;;
1785;SDS011;890;48.158;11.540;2023-08-06T08:01:14;1.80;;;1.30;;
1785;SDS011;890;48.158;11.540;2023-08-06T08:03:40;1.80;;;1.20;;
1785;SDS011;890;48.158;11.540;2023-08-06T08:06:06;2.90;;;1.70;;
1785;SDS011;890;48.158;11.540;2023-08-06T08:08:31;2.93;;;1.37;;
1785;SDS011;890;48.158;11.540;2023-08-06T08:10:57;1.87;;;1.37;;
1785;SDS011;890;48.158;11.540;2023-08-06T08:13:25;1.90;;;1.17;;
1785;SDS011;890;48.158;11.540;2023-08-06T08:15:55;1.40;;;1.30;;
1785;SDS011;890;48.158;11.540;2023-08-06T08:18:22;2.40;;;1.30;;
1785;SDS011;890;48.158;11.540;2023-08-06T08:20:47;3.17;;;1.40;;
1785;SDS011;890;48.158;11.540;2023-08-06T08:23:13;2.77;;;1.40;;
1785;SDS011;890;48.158;11.540;2023-08-06T08:25:38;1.87;;;1.00;;
1785;SDS011;890;48.158;11.540;2023-08-06T08:28:04;3.83;;;1.63;;
1785;SDS011;890;48.158;11.540;2023-08-06T08:30:30;5.40;;;1.83;;
1785;SDS011;890;48.158;11.540;2023-08-06T08:32:55;2.13;;;1.20;;
1785;SDS011;890;48.158;11.540;2023-08-06T08:35:21;5.30;;;4.60;;
1785;SDS011;890;48.158;11.540;2023-08-06T08:37:47;3.80;;;1.60;;
1785;SDS011;890;48.158;11.540;2023-08-06T08:40:13;1.50;;;0.93;;
1785;SDS011;890;48.158;11.540;2023-08-06T08:42:39;3.07;;;1.00;;
1785;SDS011;890;48.158;11.540;2023-08-06T08:45:06;2.20;;;1.17;;
1785;SDS011;890;48.158;11.540;2023-08-06T08:47:37;1.03;;;0.90;;
1785;SDS011;890;48.158;11.540;2023-08-06T08:50:04;1.57;;;0.90;;
1785;SDS011;890;48.158;11.540;2023-08-06T08:52:31;2.23;;;0.90;;
1785;SDS011;890;48.158;11.540;2023-08-06T08:54:59;3.23;;;1.00;;
1785;SDS011;890;48.158;11.540;2023-08-06T08:57:27;1.47;;;1.10;;
1785;SDS011;890;48.158;11.540;2023-08-06T08:59:52;1.17;;;0.80;;
1785;SDS011;890;48.158;11.540;2023-08-06T09:02:18;1.47;;;0.90;;
1785;SDS011;890;48.158;11.540;2023-08-06T09:04:46;1.40;;;0.70;;
1785;SDS011;890;48.158;11.540;2023-08-06T09:07:13;0.77;;;0.63;;
1785;SDS011;890;48.158;11.540;2023-08-06T09:09:43;0.97;;;0.70;;
1785;SDS011;890;48.158;11.540;2023-08-06T09:12:12;1.03;;;0.90;;
1785;SDS011;890;48.158;11.540;2023-08-06T09:14:40;1.07;;;0.80;;
1785;SDS011;890;48.158;11.540;2023-08-06T09:17:05;1.33;;;0.90;;
1785;SDS011;890;48.158;11.540;2023-08-06T09:19:31;4.03;;;0.90;;
1785;SDS011;890;48.158;11.540;2023-08-06T09:21:58;1.47;;;0.70;;
1785;SDS011;890;48.158;11.540;2023-08-06T09:24:24;1.07;;;0.70;;
1785;SDS011;890;48.158;11.540;2023-08-06T09:26:51;1.10;;;0.67;;
1785;SDS011;890;48.158;11.540;2023-08-06T09:29:16;0.97;;;0.70;;
1785;SDS011;890;48.158;11.540;2023-08-06T09:31:43;938.27;;;881.93;;
1785;SDS011;890;48.158;11.540;2023-08-06T09:34:19;1118.80;;;999.90;;
1785;SDS011;890;48.158;11.540;2023-08-06T09:36:51;1129.47;;;999.90;;
1785;SDS011;890;48.158;11.540;2023-08-06T09:39:22;1140.60;;;999.90;;
1785;SDS011;890;48.158;11.540;2023-08-06T09:41:58;1166.67;;;999.90;;
1785;SDS011;890;48.158;11.540;2023-08-06T09:44:26;1039.73;;;981.23;;
1785;SDS011;890;48.158;11.540;2023-08-06T09:46:53;1027.63;;;973.33;;
1785;SDS011;890;48.158;11.540;2023-08-06T09:49:25;970.50;;;912.37;;
1785;SDS011;890;48.158;11.540;2023-08-06T09:52:12;1069.70;;;998.80;;
1785;SDS011;890;48.158;11.540;2023-08-06T09:54:38;998.73;;;937.90;;
1785;SDS011;890;48.158;11.540;2023-08-06T09:57:05;1053.67;;;989.23;;
1785;SDS011;890;48.158;11.540;2023-08-06T09:59:30;0.70;;;0.70;;
1785;SDS011;890;48.158;11.540;2023-08-06T10:01:57;0.67;;;0.57;;
1785;SDS011;890;48.158;11.540;2023-08-06T10:04:23;1.43;;;0.87;;
1785;SDS011;890;48.158;11.540;2023-08-06T10:06:49;1.67;;;0.87;;
1785;SDS011;890;48.158;11.540;2023-08-06T10:09:15;4.13;;;1.53;;
1785;SDS011;890;48.158;11.540;2023-08-06T10:11:48;4.00;;;1.37;;
1785;SDS011;890;48.158;11.540;2023-08-06T10:14:25;1.80;;;0.70;;
1785;SDS011;890;48.158;11.540;2023-08-06T10:17:02;4.00;;;1.47;;
1785;SDS011;890;48.158;11.540;2023-08-06T10:19:28;1.27;;;0.70;;
1785;SDS011;890;48.158;11.540;2023-08-06T10:22:15;1.17;;;0.60;;
1785;SDS011;890;48.158;11.540;2023-08-06T10:25:00;1.10;;;0.80;;
1785;SDS011;890;48.158;11.540;2023-08-06T10:32:57;1.53;;;0.90;;
1785;SDS011;890;48.158;11.540;2023-08-06T10:35:30;3.67;;;1.20;;
1785;SDS011;890;48.158;11.540;2023-08-06T10:38:09;1.17;;;0.70;;
1785;SDS011;890;48.158;11.540;2023-08-06T10:40:48;0.83;;;0.70;;
1785;SDS011;890;48.158;11.540;2023-08-06T10:45:57;1.37;;;0.70;;
1785;SDS011;890;48.158;11.540;2023-08-06T10:48:34;1.50;;;0.90;;
1785;SDS011;890;48.158;11.540;2023-08-06T10:51:01;1.77;;;0.97;;
1785;SDS011;890;48.158;11.540;2023-08-06T10:53:27;1.30;;;0.90;;
1785;SDS011;890;48.158;11.540;2023-08-06T10:55:53;0.70;;;0.60;;
1785;SDS011;890;48.158;11.540;2023-08-06T10:58:19;2.43;;;0.97;;
1785;SDS011;890;48.158;11.540;2023-08-06T11:00:45;0.83;;;0.60;;
1785;SDS011;890;48.158;11.540;2023-08-06T11:03:11;0.70;;;0.60;;
1785;SDS011;890;48.158;11.540;2023-08-06T11:05:36;0.77;;;0.50;;
1785;SDS011;890;48.158;11.540;2023-08-06T11:08:02;1.07;;;0.60;;
1785;SDS011;890;48.158;11.540;2023-08-06T11:10:28;0.73;;;0.63;;
1785;SDS011;890;48.158;11.540;2023-08-06T11:12:53;0.70;;;0.70;;
1785;SDS011;890;48.158;11.540;2023-08-06T11:15:22;0.80;;;0.60;;
1785;SDS011;890;48.158;11.540;2023-08-06T11:17:48;0.70;;;0.50;;
1785;SDS011;890;48.158;11.540;2023-08-06T11:20:15;0.70;;;0.50;;
1785;SDS011;890;48.158;11.540;2023-08-06T11:22:41;1.07;;;0.80;;
1785;SDS011;890;48.158;11.540;2023-08-06T11:25:06;0.87;;;0.70;;
1785;SDS011;890;48.158;11.540;2023-08-06T11:27:32;0.80;;;0.60;;
1785;SDS011;890;48.158;11.540;2023-08-06T11:29:58;1.20;;;0.60;;
1785;SDS011;890;48.158;11.540;2023-08-06T11:32:24;0.90;;;0.50;;
1785;SDS011;890;48.158;11.540;2023-08-06T11:34:50;0.80;;;0.50;;
1785;SDS011;890;48.158;11.540;2023-08-06T11:37:20;0.70;;;0.50;;
1785;SDS011;890;48.158;11.540;2023-08-06T11:39:48;0.90;;;0.60;;
1785;SDS011;890;48.158;11.540;2023-08-06T11:42:14;313.53;;;295.87;;
1785;SDS011;890;48.158;11.540;2023-08-06T11:44:40;939.27;;;890.70;;
1785;SDS011;890;48.158;11.540;2023-08-06T11:47:11;947.80;;;899.27;;
1785;SDS011;890;48.158;11.540;2023-08-06T11:52:17;469.07;;;446.60;;
1785;SDS011;890;48.158;11.540;2023-08-06T11:54:59;553.77;;;525.60;;
1785;SDS011;890;48.158;11.540;2023-08-06T11:57:31;393.63;;;374.73;;
1785;SDS011;890;48.158;11.540;2023-08-06T12:00:05;345.00;;;329.27;;
1785;SDS011;890;48.158;11.540;2023-08-06T12:02:33;665.03;;;631.47;;
1785;SDS011;890;48.158;11.540;2023-08-06T12:05:02;755.17;;;714.37;;
1785;SDS011;890;48.158;11.540;2023-08-06T12:07:40;766.33;;;724.97;;
1785;SDS011;890;48.158;11.540;2023-08-06T12:10:10;680.47;;;645.87;;
1785;SDS011;890;48.158;11.540;2023-08-06T12:12:37;694.83;;;659.30;;
1785;SDS011;890;48.158;11.540;2023-08-06T12:15:04;702.57;;;668.10;;
1785;SDS011;890;48.158;11.540;2023-08-06T12:17:31;840.93;;;796.03;;
1785;SDS011;890;48.158;11.540;2023-08-06T12:19:57;1052.93;;;995.33;;
1785;SDS011;890;48.158;11.540;2023-08-06T12:22:23;1174.90;;;999.90;;
1785;SDS011;890;48.158;11.540;2023-08-06T12:24:49;1180.07;;;999.90;;
1785;SDS011;890;48.158;11.540;2023-08-06T12:27:15;1183.03;;;999.90;;
1785;SDS011;890;48.158;11.540;2023-08-06T12:29:44;1211.80;;;999.90;;
1785;SDS011;890;48.158;11.540;2023-08-06T12:32:12;1179.50;;;999.90;;
1785;SDS011;890;48.158;11.540;2023-08-06T12:34:41;1187.87;;;999.90;;
1785;SDS011;890;48.158;11.540;2023-08-06T12:37:07;1183.77;;;999.90;;
1785;SDS011;890;48.158;11.540;2023-08-06T12:39:34;1166.87;;;999.90;;
1785;SDS011;890;48.158;11.540;2023-08-06T12:42:01;1203.03;;;999.90;;
1785;SDS011;890;48.158;11.540;2023-08-06T12:44:27;1245.50;;;999.90;;
1785;SDS011;890;48.158;11.540;2023-08-06T12:46:53;1197.70;;;999.90;;
1785;SDS011;890;48.158;11.540;2023-08-06T12:49:19;1192.70;;;999.90;;
1785;SDS011;890;48.158;11.540;2023-08-06T12:51:50;1162.67;;;999.90;;
1785;SDS011;890;48.158;11.540;2023-08-06T12:54:22;1170.10;;;999.90;;
1785;SDS011;890;48.158;11.540;2023-08-06T12:56:48;1174.40;;;999.90;;
1785;SDS011;890;48.158;11.540;2023-08-06T12:59:15;1160.73;;;999.90;;
1785;SDS011;890;48.158;11.540;2023-08-06T13:01:42;1151.03;;;999.90;;
1785;SDS011;890;48.158;11.540;2023-08-06T13:04:07;1170.60;;;999.90;;
1785;SDS011;890;48.158;11.540;2023-08-06T13:06:33;1160.13;;;999.90;;
1785;SDS011;890;48.158;11.540;2023-08-06T13:09:05;1158.43;;;999.90;;
1785;SDS011;890;48.158;11.540;2023-08-06T13:11:33;1128.13;;;999.90;;
1785;SDS011;890;48.158;11.540;2023-08-06T13:14:18;1125.93;;;999.90;;
1785;SDS011;890;48.158;11.540;2023-08-06T13:16:43;1155.13;;;999.90;;
1785;SDS011;890;48.158;11.540;2023-08-06T13:19:10;1145.87;;;999.90;;
1785;SDS011;890;48.158;11.540;2023-08-06T13:24:06;957.83;;;906.93;;
1785;SDS011;890;48.158;11.540;2023-08-06T13:26:32;1162.50;;;999.90;;
1785;SDS011;890;48.158;11.540;2023-08-06T13:28:58;1181.03;;;999.90;;
1785;SDS011;890;48.158;11.540;2023-08-06T13:31:24;1178.20;;;999.90;;
1785;SDS011;890;48.158;11.540;2023-08-06T13:33:51;1200.47;;;999.90;;
1785;SDS011;890;48.158;11.540;2023-08-06T13:36:17;1165.40;;;999.90;;
1785;SDS011;890;48.158;11.540;2023-08-06T13:38:42;1104.00;;;999.90;;
1785;SDS011;890;48.158;11.540;2023-08-06T13:41:08;1201.37;;;999.90;;
1785;SDS011;890;48.158;11.540;2023-08-06T13:43:33;1163.30;;;999.90;;
1785;SDS011;890;48.158;11.540;2023-08-06T13:45:59;1166.97;;;999.90;;
1785;SDS011;890;48.158;11.540;2023-08-06T13:48:25;1164.60;;;999.90;;
1785;SDS011;890;48.158;11.540;2023-08-06T13:50:50;1194.07;;;999.90;;
1785;SDS011;890;48.158;11.540;2023-08-06T13:53:16;1171.80;;;999.90;;
1785;SDS011;890;48.158;11.540;2023-08-06T13:55:42;1196.63;;;999.90;;
1785;SDS011;890;48.158;11.540;2023-08-06T13:58:07;1184.57;;;999.90;;
1785;SDS011;890;48.158;11.540;2023-08-06T14:00:33;1105.77;;;999.90;;
1785;SDS011;890;48.158;11.540;2023-08-06T14:03:00;1197.00;;;999.90;;
1785;SDS011;890;48.158;11.540;2023-08-06T14:05:26;1100.87;;;999.90;;
1785;SDS011;890;48.158;11.540;2023-08-06T14:07:51;1018.23;;;955.17;;
1785;SDS011;890;48.158;11.540;2023-08-06T14:10:17;1127.33;;;999.90;;
1785;SDS011;890;48.158;11.540;2023-08-06T14:12:43;1086.30;;;999.00;;
1785;SDS011;890;48.158;11.540;2023-08-06T14:15:08;1040.43;;;977.03;;
1785;SDS011;890;48.158;11.540;2023-08-06T14:17:35;1049.40;;;980.93;;
1785;SDS011;890;48.158;11.540;2023-08-06T14:20:01;2.17;;;1.30;;
1785;SDS011;890;48.158;11.540;2023-08-06T14:22:29;2.13;;;1.60;;
1785;SDS011;890;48.158;11.540;2023-08-06T14:24:56;1101.60;;;999.50;;
1785;SDS011;890;48.158;11.540;2023-08-06T14:27:22;721.23;;;674.07;;
1785;SDS011;890;48.158;11.540;2023-08-06T14:29:48;35.20;;;32.20;;
1785;SDS011;890;48.158;11.540;2023-08-06T14:32:14;1145.63;;;992.30;;
1785;SDS011;890;48.158;11.540;2023-08-06T14:34:43;969.90;;;910.17;;
1785;SDS011;890;48.158;11.540;2023-08-06T14:37:11;1128.23;;;999.90;;
1785;SDS011;890;48.158;11.540;2023-08-06T14:39:36;1238.97;;;999.90;;
1785;SDS011;890;48.158;11.540;2023-08-06T14:42:03;1227.33;;;999.90;;
1785;SDS011;890;48.158;11.540;2023-08-06T14:44:29;1141.90;;;999.90;;
1785;SDS011;890;48.158;11.540;2023-08-06T14:46:55;1011.13;;;946.10;;
1785;SDS011;890;48.158;11.540;2023-08-06T14:49:21;984.60;;;924.20;;
1785;SDS011;890;48.158;11.540;2023-08-06T14:51:46;983.07;;;921.27;;
1785;SDS011;890;48.158;11.540;2023-08-06T14:54:12;1015.97;;;931.97;;
1785;SDS011;890;48.158;11.540;2023-08-06T14:56:37;347.87;;;319.17;;
1785;SDS011;890;48.158;11.540;2023-08-06T14:59:03;925.33;;;866.80;;
1785;SDS011;890;48.158;11.540;2023-08-06T15:01:29;276.70;;;255.17;;
1785;SDS011;890;48.158;11.540;2023-08-06T15:03:54;421.60;;;380.53;;
1785;SDS011;890;48.158;11.540;2023-08-06T15:06:20;1160.70;;;999.90;;
1785;SDS011;890;48.158;11.540;2023-08-06T15:08:46;1153.77;;;999.90;;
1785;SDS011;890;48.158;11.540;2023-08-06T15:11:15;1325.03;;;999.90;;
1785;SDS011;890;48.158;11.540;2023-08-06T15:13:40;1187.40;;;999.90;;